sensor_id;sensor_type;location;lat;lon;timestamp;P1;durP1;ratioP1;P2;durP2;ratioP2
42066;SDS011;27734;47.028;28.820;2024-03-08T00:00:20;31.67;;;14.13;;
42066;SDS011;27734;47.028;28.820;2024-03-08T00:03:12;31.50;;;14.33;;
42066;SDS011;27734;47.028;28.820;2024-03-08T00:05:43;30.70;;;13.70;;
42066;SDS011;27734;47.028;28.820;2024-03-08T00:08:15;33.83;;;14.03;;
42066;SDS011;27734;47.028;28.820;2024-03-08T00:10:46;30.47;;;13.83;;
42066;SDS011;27734;47.028;28.820;2024-03-08T00:13:17;30.37;;;14.37;;
42066;SDS011;27734;47.028;28.820;2024-03-08T00:15:50;31.67;;;14.43;;
42066;SDS011;27734;47.028;28.820;2024-03-08T00:18:21;29.80;;;13.60;;
42066;SDS011;27734;47.028;28.820;2024-03-08T00:20:53;28.60;;;14.27;;
42066;SDS011;27734;47.028;28.820;2024-03-08T00:23:25;30.07;;;12.97;;
42066;SDS011;27734;47.028;28.820;2024-03-08T00:25:56;29.87;;;14.00;;
42066;SDS011;27734;47.028;28.820;2024-03-08T00:28:27;33.33;;;15.03;;
42066;SDS011;27734;47.028;28.820;2024-03-08T00:30:58;31.47;;;13.87;;
42066;SDS011;27734;47.028;28.820;2024-03-08T00:33:30;29.13;;;14.07;;
42066;SDS011;27734;47.028;28.820;2024-03-08T00:36:01;36.90;;;15.10;;
42066;SDS011;27734;47.028;28.820;2024-03-08T00:38:32;31.57;;;13.90;;
42066;SDS011;27734;47.028;28.820;2024-03-08T00:41:04;33.85;;;15.75;;
42066;SDS011;27734;47.028;28.820;2024-03-08T00:43:35;33.03;;;14.73;;
42066;SDS011;27734;47.028;28.820;2024-03-08T00:46:07;33.97;;;14.87;;
42066;SDS011;27734;47.028;28.820;2024-03-08T00:48:38;32.90;;;15.00;;
42066;SDS011;27734;47.028;28.820;2024-03-08T00:51:12;31.02;;;13.93;;
42066;SDS011;27734;47.028;28.820;2024-03-08T00:53:44;34.37;;;14.73;;
42066;SDS011;27734;47.028;28.820;2024-03-08T00:56:15;30.13;;;14.63;;
42066;SDS011;27734;47.028;28.820;2024-03-08T00:58:46;33.50;;;14.00;;
42066;SDS011;27734;47.028;28.820;2024-03-08T01:01:19;27.70;;;13.37;;
42066;SDS011;27734;47.028;28.820;2024-03-08T01:03:50;29.97;;;13.70;;
42066;SDS011;27734;47.028;28.820;2024-03-08T01:06:21;29.20;;;13.67;;
42066;SDS011;27734;47.028;28.820;2024-03-08T01:08:53;32.50;;;14.30;;
42066;SDS011;27734;47.028;28.820;2024-03-08T01:11:24;31.20;;;14.30;;
42066;SDS011;27734;47.028;28.820;2024-03-08T01:13:56;34.70;;;14.80;;
42066;SDS011;27734;47.028;28.820;2024-03-08T01:16:27;32.50;;;14.23;;
42066;SDS011;27734;47.028;28.820;2024-03-08T01:18:59;31.13;;;14.33;;
42066;SDS011;27734;47.028;28.820;2024-03-08T01:21:31;29.60;;;13.77;;
42066;SDS011;27734;47.028;28.820;2024-03-08T01:24:02;30.83;;;14.80;;
42066;SDS011;27734;47.028;28.820;2024-03-08T01:26:35;30.90;;;14.50;;
42066;SDS011;27734;47.028;28.820;2024-03-08T01:29:06;29.70;;;14.13;;
42066;SDS011;27734;47.028;28.820;2024-03-08T01:31:38;34.50;;;15.07;;
42066;SDS011;27734;47.028;28.820;2024-03-08T01:34:09;31.87;;;14.20;;
42066;SDS011;27734;47.028;28.820;2024-03-08T01:36:40;35.20;;;16.23;;
42066;SDS011;27734;47.028;28.820;2024-03-08T01:39:13;37.65;;;16.90;;
42066;SDS011;27734;47.028;28.820;2024-03-08T01:41:45;34.00;;;15.33;;
42066;SDS011;27734;47.028;28.820;2024-03-08T01:44:16;36.03;;;15.60;;
42066;SDS011;27734;47.028;28.820;2024-03-08T01:46:47;32.03;;;14.97;;
42066;SDS011;27734;47.028;28.820;2024-03-08T01:49:20;28.33;;;14.17;;
42066;SDS011;27734;47.028;28.820;2024-03-08T01:51:54;34.55;;;14.80;;
42066;SDS011;27734;47.028;28.820;2024-03-08T01:54:26;35.30;;;14.93;;
42066;SDS011;27734;47.028;28.820;2024-03-08T01:56:58;32.97;;;14.63;;
42066;SDS011;27734;47.028;28.820;2024-03-08T01:59:30;34.20;;;15.25;;
42066;SDS011;27734;47.028;28.820;2024-03-08T02:02:02;29.37;;;14.03;;
42066;SDS011;27734;47.028;28.820;2024-03-08T02:04:35;34.67;;;15.70;;
42066;SDS011;27734;47.028;28.820;2024-03-08T02:07:08;33.17;;;15.07;;
42066;SDS011;27734;47.028;28.820;2024-03-08T02:09:39;32.80;;;15.70;;
42066;SDS011;27734;47.028;28.820;2024-03-08T02:12:11;31.73;;;14.77;;
42066;SDS011;27734;47.028;28.820;2024-03-08T02:14:43;29.50;;;13.93;;
42066;SDS011;27734;47.028;28.820;2024-03-08T02:17:15;32.70;;;15.33;;
42066;SDS011;27734;47.028;28.820;2024-03-08T02:19:46;34.07;;;15.07;;
42066;SDS011;27734;47.028;28.820;2024-03-08T02:22:17;34.40;;;15.60;;
42066;SDS011;27734;47.028;28.820;2024-03-08T02:24:48;32.17;;;15.17;;
42066;SDS011;27734;47.028;28.820;2024-03-08T02:27:24;31.10;;;14.43;;
42066;SDS011;27734;47.028;28.820;2024-03-08T02:29:56;33.60;;;15.27;;
42066;SDS011;27734;47.028;28.820;2024-03-08T02:32:27;32.10;;;14.90;;
42066;SDS011;27734;47.028;28.820;2024-03-08T02:35:01;32.53;;;14.53;;
42066;SDS011;27734;47.028;28.820;2024-03-08T02:37:34;29.98;;;14.20;;
42066;SDS011;27734;47.028;28.820;2024-03-08T02:40:10;47.57;;;22.80;;
42066;SDS011;27734;47.028;28.820;2024-03-08T02:42:42;47.30;;;22.20;;
42066;SDS011;27734;47.028;28.820;2024-03-08T02:45:13;47.15;;;21.20;;
42066;SDS011;27734;47.028;28.820;2024-03-08T02:47:45;47.40;;;20.73;;
42066;SDS011;27734;47.028;28.820;2024-03-08T02:50:17;39.87;;;19.33;;
42066;SDS011;27734;47.028;28.820;2024-03-08T02:52:50;43.60;;;19.30;;
42066;SDS011;27734;47.028;28.820;2024-03-08T02:55:21;45.07;;;18.87;;
42066;SDS011;27734;47.028;28.820;2024-03-08T02:57:54;34.70;;;17.75;;
42066;SDS011;27734;47.028;28.820;2024-03-08T03:00:25;36.37;;;16.23;;
42066;SDS011;27734;47.028;28.820;2024-03-08T03:02:58;34.37;;;15.00;;
42066;SDS011;27734;47.028;28.820;2024-03-08T03:05:31;31.83;;;15.00;;
42066;SDS011;27734;47.028;28.820;2024-03-08T03:08:03;30.03;;;13.63;;
42066;SDS011;27734;47.028;28.820;2024-03-08T03:10:36;30.10;;;14.00;;
42066;SDS011;27734;47.028;28.820;2024-03-08T03:13:08;31.77;;;14.17;;
42066;SDS011;27734;47.028;28.820;2024-03-08T03:15:40;32.60;;;13.77;;
42066;SDS011;27734;47.028;28.820;2024-03-08T03:18:11;32.87;;;15.50;;
42066;SDS011;27734;47.028;28.820;2024-03-08T03:20:43;29.87;;;15.40;;
42066;SDS011;27734;47.028;28.820;2024-03-08T03:23:14;35.15;;;16.75;;
42066;SDS011;27734;47.028;28.820;2024-03-08T03:25:48;34.88;;;15.95;;
42066;SDS011;27734;47.028;28.820;2024-03-08T03:28:20;32.63;;;16.10;;
42066;SDS011;27734;47.028;28.820;2024-03-08T03:30:52;31.17;;;14.80;;
42066;SDS011;27734;47.028;28.820;2024-03-08T03:33:27;35.50;;;16.83;;
42066;SDS011;27734;47.028;28.820;2024-03-08T03:35:58;35.90;;;16.90;;
42066;SDS011;27734;47.028;28.820;2024-03-08T03:38:30;34.63;;;16.73;;
42066;SDS011;27734;47.028;28.820;2024-03-08T03:41:02;33.77;;;16.60;;
42066;SDS011;27734;47.028;28.820;2024-03-08T03:43:38;35.13;;;16.13;;
42066;SDS011;27734;47.028;28.820;2024-03-08T03:46:09;40.37;;;16.73;;
42066;SDS011;27734;47.028;28.820;2024-03-08T03:48:40;34.43;;;16.63;;
42066;SDS011;27734;47.028;28.820;2024-03-08T03:51:11;36.63;;;16.40;;
42066;SDS011;27734;47.028;28.820;2024-03-08T03:53:43;33.27;;;16.10;;
42066;SDS011;27734;47.028;28.820;2024-03-08T03:56:14;35.43;;;16.67;;
42066;SDS011;27734;47.028;28.820;2024-03-08T03:58:46;38.80;;;17.63;;
42066;SDS011;27734;47.028;28.820;2024-03-08T04:01:18;34.47;;;17.17;;
42066;SDS011;27734;47.028;28.820;2024-03-08T04:03:49;34.20;;;16.50;;
42066;SDS011;27734;47.028;28.820;2024-03-08T04:06:20;37.37;;;18.20;;
42066;SDS011;27734;47.028;28.820;2024-03-08T04:08:52;36.83;;;16.87;;
42066;SDS011;27734;47.028;28.820;2024-03-08T04:11:23;33.57;;;16.20;;
42066;SDS011;27734;47.028;28.820;2024-03-08T04:13:54;34.37;;;16.27;;
42066;SDS011;27734;47.028;28.820;2024-03-08T04:16:25;39.30;;;17.57;;
42066;SDS011;27734;47.028;28.820;2024-03-08T04:18:58;38.03;;;17.77;;
42066;SDS011;27734;47.028;28.820;2024-03-08T04:21:32;35.03;;;17.23;;
42066;SDS011;27734;47.028;28.820;2024-03-08T04:24:03;36.17;;;16.77;;
42066;SDS011;27734;47.028;28.820;2024-03-08T04:26:35;34.47;;;16.60;;
42066;SDS011;27734;47.028;28.820;2024-03-08T04:29:07;38.67;;;17.27;;
42066;SDS011;27734;47.028;28.820;2024-03-08T04:31:45;36.80;;;17.07;;
42066;SDS011;27734;47.028;28.820;2024-03-08T04:34:16;39.17;;;17.80;;
42066;SDS011;27734;47.028;28.820;2024-03-08T04:36:48;37.65;;;16.75;;
42066;SDS011;27734;47.028;28.820;2024-03-08T04:39:19;37.10;;;17.90;;
42066;SDS011;27734;47.028;28.820;2024-03-08T04:41:50;38.37;;;18.50;;
42066;SDS011;27734;47.028;28.820;2024-03-08T04:44:23;38.03;;;17.13;;
42066;SDS011;27734;47.028;28.820;2024-03-08T04:46:54;40.03;;;18.30;;
42066;SDS011;27734;47.028;28.820;2024-03-08T04:49:25;36.20;;;16.40;;
42066;SDS011;27734;47.028;28.820;2024-03-08T04:51:58;41.43;;;18.77;;
42066;SDS011;27734;47.028;28.820;2024-03-08T04:54:31;36.05;;;18.40;;
42066;SDS011;27734;47.028;28.820;2024-03-08T04:57:02;38.30;;;18.20;;
42066;SDS011;27734;47.028;28.820;2024-03-08T04:59:33;34.90;;;16.77;;
42066;SDS011;27734;47.028;28.820;2024-03-08T05:02:05;35.73;;;17.80;;
42066;SDS011;27734;47.028;28.820;2024-03-08T05:04:36;38.83;;;18.53;;
42066;SDS011;27734;47.028;28.820;2024-03-08T05:07:08;40.67;;;18.40;;
42066;SDS011;27734;47.028;28.820;2024-03-08T05:09:39;42.37;;;18.20;;
42066;SDS011;27734;47.028;28.820;2024-03-08T05:12:10;41.23;;;17.50;;
42066;SDS011;27734;47.028;28.820;2024-03-08T05:14:41;38.77;;;18.43;;
42066;SDS011;27734;47.028;28.820;2024-03-08T05:17:13;41.53;;;18.83;;
42066;SDS011;27734;47.028;28.820;2024-03-08T05:19:44;38.80;;;17.80;;
42066;SDS011;27734;47.028;28.820;2024-03-08T05:22:15;39.30;;;18.50;;
42066;SDS011;27734;47.028;28.820;2024-03-08T05:24:47;36.97;;;17.23;;
42066;SDS011;27734;47.028;28.820;2024-03-08T05:27:18;39.37;;;18.57;;
42066;SDS011;27734;47.028;28.820;2024-03-08T05:29:49;39.03;;;18.07;;
42066;SDS011;27734;47.028;28.820;2024-03-08T05:32:20;40.73;;;17.87;;
42066;SDS011;27734;47.028;28.820;2024-03-08T05:34:53;41.13;;;18.33;;
42066;SDS011;27734;47.028;28.820;2024-03-08T05:37:24;42.90;;;18.97;;
42066;SDS011;27734;47.028;28.820;2024-03-08T05:39:55;40.73;;;20.07;;
42066;SDS011;27734;47.028;28.820;2024-03-08T05:42:26;39.97;;;18.57;;
42066;SDS011;27734;47.028;28.820;2024-03-08T05:44:57;42.23;;;18.90;;
42066;SDS011;27734;47.028;28.820;2024-03-08T05:47:29;42.97;;;19.43;;
42066;SDS011;27734;47.028;28.820;2024-03-08T05:50:00;38.70;;;19.00;;
42066;SDS011;27734;47.028;28.820;2024-03-08T05:52:33;41.00;;;18.60;;
42066;SDS011;27734;47.028;28.820;2024-03-08T05:55:04;39.83;;;18.07;;
42066;SDS011;27734;47.028;28.820;2024-03-08T05:57:38;44.40;;;19.02;;
42066;SDS011;27734;47.028;28.820;2024-03-08T06:00:10;37.40;;;19.20;;
42066;SDS011;27734;47.028;28.820;2024-03-08T06:02:43;41.60;;;19.77;;
42066;SDS011;27734;47.028;28.820;2024-03-08T06:05:14;42.60;;;18.40;;
42066;SDS011;27734;47.028;28.820;2024-03-08T06:07:46;41.03;;;18.53;;
42066;SDS011;27734;47.028;28.820;2024-03-08T06:10:17;34.73;;;16.97;;
42066;SDS011;27734;47.028;28.820;2024-03-08T06:12:49;38.87;;;19.00;;
42066;SDS011;27734;47.028;28.820;2024-03-08T06:15:20;39.70;;;19.03;;
42066;SDS011;27734;47.028;28.820;2024-03-08T06:17:52;34.53;;;16.80;;
42066;SDS011;27734;47.028;28.820;2024-03-08T06:20:23;39.83;;;17.53;;
42066;SDS011;27734;47.028;28.820;2024-03-08T06:22:54;33.23;;;17.00;;
42066;SDS011;27734;47.028;28.820;2024-03-08T06:25:25;35.07;;;17.13;;
42066;SDS011;27734;47.028;28.820;2024-03-08T06:27:57;36.77;;;17.67;;
42066;SDS011;27734;47.028;28.820;2024-03-08T06:30:28;34.57;;;16.20;;
42066;SDS011;27734;47.028;28.820;2024-03-08T06:32:59;33.70;;;16.17;;
42066;SDS011;27734;47.028;28.820;2024-03-08T06:35:30;33.77;;;16.13;;
42066;SDS011;27734;47.028;28.820;2024-03-08T06:38:02;35.93;;;16.63;;
42066;SDS011;27734;47.028;28.820;2024-03-08T06:40:33;37.13;;;16.03;;
42066;SDS011;27734;47.028;28.820;2024-03-08T06:43:04;31.67;;;15.53;;
42066;SDS011;27734;47.028;28.820;2024-03-08T06:45:35;34.87;;;16.50;;
42066;SDS011;27734;47.028;28.820;2024-03-08T06:48:07;37.47;;;17.50;;
42066;SDS011;27734;47.028;28.820;2024-03-08T06:50:38;34.07;;;16.13;;
42066;SDS011;27734;47.028;28.820;2024-03-08T06:53:10;35.23;;;16.27;;
42066;SDS011;27734;47.028;28.820;2024-03-08T06:55:41;31.47;;;14.87;;
42066;SDS011;27734;47.028;28.820;2024-03-08T06:58:13;30.97;;;14.83;;
42066;SDS011;27734;47.028;28.820;2024-03-08T07:00:44;33.77;;;15.30;;
42066;SDS011;27734;47.028;28.820;2024-03-08T07:03:20;29.70;;;14.80;;
42066;SDS011;27734;47.028;28.820;2024-03-08T07:05:51;33.83;;;15.37;;
42066;SDS011;27734;47.028;28.820;2024-03-08T07:08:23;32.00;;;15.90;;
42066;SDS011;27734;47.028;28.820;2024-03-08T07:10:55;32.77;;;15.27;;
42066;SDS011;27734;47.028;28.820;2024-03-08T07:13:26;35.23;;;15.37;;
42066;SDS011;27734;47.028;28.820;2024-03-08T07:15:57;32.67;;;14.87;;
42066;SDS011;27734;47.028;28.820;2024-03-08T07:18:29;31.20;;;14.53;;
42066;SDS011;27734;47.028;28.820;2024-03-08T07:21:02;35.40;;;15.68;;
42066;SDS011;27734;47.028;28.820;2024-03-08T07:23:34;31.53;;;15.50;;
42066;SDS011;27734;47.028;28.820;2024-03-08T07:26:41;31.20;;;15.00;;
42066;SDS011;27734;47.028;28.820;2024-03-08T07:29:13;30.83;;;15.17;;
42066;SDS011;27734;47.028;28.820;2024-03-08T07:31:44;31.37;;;14.67;;
42066;SDS011;27734;47.028;28.820;2024-03-08T07:34:24;34.47;;;15.37;;
42066;SDS011;27734;47.028;28.820;2024-03-08T07:36:55;34.30;;;15.80;;
42066;SDS011;27734;47.028;28.820;2024-03-08T07:39:27;30.07;;;14.97;;
42066;SDS011;27734;47.028;28.820;2024-03-08T07:41:58;30.70;;;15.33;;
42066;SDS011;27734;47.028;28.820;2024-03-08T07:44:30;30.83;;;15.13;;
42066;SDS011;27734;47.028;28.820;2024-03-08T07:47:01;31.00;;;15.23;;
42066;SDS011;27734;47.028;28.820;2024-03-08T07:49:33;31.90;;;16.23;;
42066;SDS011;27734;47.028;28.820;2024-03-08T07:52:06;34.13;;;16.40;;
42066;SDS011;27734;47.028;28.820;2024-03-08T07:54:37;32.43;;;14.80;;
42066;SDS011;27734;47.028;28.820;2024-03-08T07:57:08;33.30;;;15.60;;
42066;SDS011;27734;47.028;28.820;2024-03-08T07:59:39;31.30;;;15.73;;
42066;SDS011;27734;47.028;28.820;2024-03-08T08:02:10;29.93;;;15.03;;
42066;SDS011;27734;47.028;28.820;2024-03-08T08:04:41;30.60;;;14.73;;
42066;SDS011;27734;47.028;28.820;2024-03-08T08:07:14;31.57;;;15.33;;
42066;SDS011;27734;47.028;28.820;2024-03-08T08:09:45;34.77;;;16.93;;
42066;SDS011;27734;47.028;28.820;2024-03-08T08:12:17;34.27;;;16.53;;
42066;SDS011;27734;47.028;28.820;2024-03-08T08:14:49;38.47;;;17.57;;
42066;SDS011;27734;47.028;28.820;2024-03-08T08:17:20;35.77;;;16.47;;
42066;SDS011;27734;47.028;28.820;2024-03-08T08:19:51;30.03;;;15.30;;
42066;SDS011;27734;47.028;28.820;2024-03-08T08:22:22;36.63;;;16.97;;
42066;SDS011;27734;47.028;28.820;2024-03-08T08:24:53;34.57;;;16.43;;
42066;SDS011;27734;47.028;28.820;2024-03-08T08:27:25;34.13;;;17.47;;
42066;SDS011;27734;47.028;28.820;2024-03-08T08:29:56;34.40;;;16.35;;
42066;SDS011;27734;47.028;28.820;2024-03-08T08:32:27;31.80;;;15.50;;
42066;SDS011;27734;47.028;28.820;2024-03-08T08:34:58;33.83;;;16.73;;
42066;SDS011;27734;47.028;28.820;2024-03-08T08:37:30;34.13;;;17.20;;
42066;SDS011;27734;47.028;28.820;2024-03-08T08:40:05;31.90;;;16.27;;
42066;SDS011;27734;47.028;28.820;2024-03-08T08:42:38;31.93;;;15.47;;
42066;SDS011;27734;47.028;28.820;2024-03-08T08:45:10;40.63;;;17.57;;
42066;SDS011;27734;47.028;28.820;2024-03-08T08:47:42;58.17;;;19.93;;
42066;SDS011;27734;47.028;28.820;2024-03-08T08:50:15;35.60;;;16.70;;
42066;SDS011;27734;47.028;28.820;2024-03-08T08:52:51;33.40;;;16.47;;
42066;SDS011;27734;47.028;28.820;2024-03-08T08:55:22;38.37;;;17.30;;
42066;SDS011;27734;47.028;28.820;2024-03-08T08:57:54;35.13;;;16.00;;
42066;SDS011;27734;47.028;28.820;2024-03-08T09:00:26;34.23;;;17.07;;
42066;SDS011;27734;47.028;28.820;2024-03-08T09:02:59;33.28;;;16.05;;
42066;SDS011;27734;47.028;28.820;2024-03-08T09:05:30;30.50;;;15.20;;
42066;SDS011;27734;47.028;28.820;2024-03-08T09:08:02;32.43;;;15.90;;
42066;SDS011;27734;47.028;28.820;2024-03-08T09:10:35;31.10;;;15.80;;
42066;SDS011;27734;47.028;28.820;2024-03-08T09:13:07;31.80;;;16.50;;
42066;SDS011;27734;47.028;28.820;2024-03-08T09:15:39;35.03;;;16.17;;
42066;SDS011;27734;47.028;28.820;2024-03-08T09:18:10;33.70;;;16.25;;
42066;SDS011;27734;47.028;28.820;2024-03-08T09:20:42;30.83;;;15.23;;
42066;SDS011;27734;47.028;28.820;2024-03-08T09:23:13;27.43;;;13.67;;
42066;SDS011;27734;47.028;28.820;2024-03-08T09:25:45;32.07;;;15.80;;
42066;SDS011;27734;47.028;28.820;2024-03-08T09:28:16;30.70;;;14.83;;
42066;SDS011;27734;47.028;28.820;2024-03-08T09:30:48;31.90;;;15.87;;
42066;SDS011;27734;47.028;28.820;2024-03-08T09:33:19;31.80;;;16.47;;
42066;SDS011;27734;47.028;28.820;2024-03-08T09:35:50;31.30;;;16.33;;
42066;SDS011;27734;47.028;28.820;2024-03-08T09:38:21;28.60;;;14.80;;
42066;SDS011;27734;47.028;28.820;2024-03-08T09:40:54;31.87;;;15.10;;
42066;SDS011;27734;47.028;28.820;2024-03-08T09:43:25;31.93;;;15.60;;
42066;SDS011;27734;47.028;28.820;2024-03-08T09:45:57;31.33;;;15.57;;
42066;SDS011;27734;47.028;28.820;2024-03-08T09:48:28;31.60;;;15.83;;
42066;SDS011;27734;47.028;28.820;2024-03-08T09:51:00;31.00;;;15.60;;
42066;SDS011;27734;47.028;28.820;2024-03-08T09:53:31;33.83;;;15.50;;
42066;SDS011;27734;47.028;28.820;2024-03-08T09:56:05;30.63;;;16.20;;
42066;SDS011;27734;47.028;28.820;2024-03-08T09:58:36;30.43;;;15.60;;
42066;SDS011;27734;47.028;28.820;2024-03-08T10:01:25;27.40;;;14.45;;
42066;SDS011;27734;47.028;28.820;2024-03-08T10:03:56;30.37;;;15.10;;
42066;SDS011;27734;47.028;28.820;2024-03-08T10:06:28;30.53;;;15.13;;
42066;SDS011;27734;47.028;28.820;2024-03-08T10:08:59;30.47;;;15.40;;
42066;SDS011;27734;47.028;28.820;2024-03-08T10:11:30;31.75;;;15.90;;
42066;SDS011;27734;47.028;28.820;2024-03-08T10:14:01;30.80;;;15.37;;
42066;SDS011;27734;47.028;28.820;2024-03-08T10:16:34;31.07;;;15.53;;
42066;SDS011;27734;47.028;28.820;2024-03-08T10:19:05;29.40;;;14.63;;
42066;SDS011;27734;47.028;28.820;2024-03-08T10:21:37;28.93;;;14.63;;
42066;SDS011;27734;47.028;28.820;2024-03-08T10:24:20;32.33;;;15.13;;
42066;SDS011;27734;47.028;28.820;2024-03-08T10:26:52;30.70;;;15.47;;
42066;SDS011;27734;47.028;28.820;2024-03-08T10:29:27;29.87;;;14.57;;
42066;SDS011;27734;47.028;28.820;2024-03-08T10:32:00;26.27;;;13.33;;
42066;SDS011;27734;47.028;28.820;2024-03-08T10:34:34;30.43;;;15.30;;
42066;SDS011;27734;47.028;28.820;2024-03-08T10:37:05;30.50;;;14.50;;
42066;SDS011;27734;47.028;28.820;2024-03-08T10:39:47;29.67;;;14.60;;
42066;SDS011;27734;47.028;28.820;2024-03-08T10:42:40;26.03;;;13.87;;
42066;SDS011;27734;47.028;28.820;2024-03-08T10:45:26;31.87;;;14.33;;
42066;SDS011;27734;47.028;28.820;2024-03-08T10:48:18;29.55;;;15.80;;
42066;SDS011;27734;47.028;28.820;2024-03-08T10:51:02;29.97;;;14.87;;
42066;SDS011;27734;47.028;28.820;2024-03-08T10:53:36;28.07;;;14.30;;
42066;SDS011;27734;47.028;28.820;2024-03-08T10:56:09;30.27;;;15.57;;
42066;SDS011;27734;47.028;28.820;2024-03-08T10:58:42;28.40;;;14.10;;
42066;SDS011;27734;47.028;28.820;2024-03-08T11:01:15;29.80;;;14.75;;
42066;SDS011;27734;47.028;28.820;2024-03-08T11:03:47;29.30;;;14.73;;
42066;SDS011;27734;47.028;28.820;2024-03-08T11:06:23;29.80;;;14.40;;
42066;SDS011;27734;47.028;28.820;2024-03-08T11:09:12;29.45;;;14.80;;
42066;SDS011;27734;47.028;28.820;2024-03-08T11:14:58;28.87;;;13.93;;
42066;SDS011;27734;47.028;28.820;2024-03-08T11:17:42;29.83;;;14.30;;
42066;SDS011;27734;47.028;28.820;2024-03-08T11:20:17;29.90;;;15.07;;
42066;SDS011;27734;47.028;28.820;2024-03-08T11:22:49;28.10;;;14.23;;
42066;SDS011;27734;47.028;28.820;2024-03-08T11:25:34;29.60;;;14.90;;
42066;SDS011;27734;47.028;28.820;2024-03-08T11:28:12;31.00;;;16.17;;
42066;SDS011;27734;47.028;28.820;2024-03-08T11:33:56;28.60;;;14.10;;
42066;SDS011;27734;47.028;28.820;2024-03-08T11:36:27;30.00;;;14.90;;
42066;SDS011;27734;47.028;28.820;2024-03-08T11:39:00;28.57;;;14.60;;
42066;SDS011;27734;47.028;28.820;2024-03-08T11:41:38;28.15;;;14.60;;
42066;SDS011;27734;47.028;28.820;2024-03-08T11:44:10;27.17;;;13.83;;
42066;SDS011;27734;47.028;28.820;2024-03-08T11:46:44;27.43;;;14.03;;
42066;SDS011;27734;47.028;28.820;2024-03-08T11:49:16;29.17;;;14.83;;
42066;SDS011;27734;47.028;28.820;2024-03-08T11:51:49;27.80;;;14.57;;
42066;SDS011;27734;47.028;28.820;2024-03-08T11:54:22;30.20;;;14.37;;
42066;SDS011;27734;47.028;28.820;2024-03-08T11:56:54;27.20;;;14.00;;
42066;SDS011;27734;47.028;28.820;2024-03-08T11:59:29;29.07;;;15.10;;
42066;SDS011;27734;47.028;28.820;2024-03-08T12:02:01;29.83;;;14.70;;
42066;SDS011;27734;47.028;28.820;2024-03-08T12:04:34;30.03;;;15.37;;
42066;SDS011;27734;47.028;28.820;2024-03-08T12:07:05;30.40;;;15.10;;
42066;SDS011;27734;47.028;28.820;2024-03-08T12:09:42;29.40;;;15.17;;
42066;SDS011;27734;47.028;28.820;2024-03-08T12:12:15;29.53;;;14.57;;
42066;SDS011;27734;47.028;28.820;2024-03-08T12:14:46;28.20;;;15.25;;
42066;SDS011;27734;47.028;28.820;2024-03-08T12:17:20;29.90;;;15.63;;
42066;SDS011;27734;47.028;28.820;2024-03-08T12:19:52;31.10;;;15.47;;
42066;SDS011;27734;47.028;28.820;2024-03-08T12:22:26;28.67;;;14.63;;
42066;SDS011;27734;47.028;28.820;2024-03-08T12:25:07;31.00;;;15.07;;
42066;SDS011;27734;47.028;28.820;2024-03-08T12:27:41;30.60;;;15.60;;
42066;SDS011;27734;47.028;28.820;2024-03-08T12:30:19;37.27;;;16.53;;
42066;SDS011;27734;47.028;28.820;2024-03-08T12:32:55;34.07;;;17.23;;
42066;SDS011;27734;47.028;28.820;2024-03-08T12:35:28;31.13;;;15.13;;
42066;SDS011;27734;47.028;28.820;2024-03-08T12:38:01;31.45;;;16.25;;
42066;SDS011;27734;47.028;28.820;2024-03-08T12:40:34;30.53;;;16.53;;
42066;SDS011;27734;47.028;28.820;2024-03-08T12:43:08;29.80;;;15.03;;
42066;SDS011;27734;47.028;28.820;2024-03-08T12:45:40;33.67;;;15.57;;
42066;SDS011;27734;47.028;28.820;2024-03-08T12:48:13;31.83;;;15.77;;
42066;SDS011;27734;47.028;28.820;2024-03-08T12:50:45;37.90;;;16.52;;
42066;SDS011;27734;47.028;28.820;2024-03-08T12:53:19;35.25;;;19.62;;
42066;SDS011;27734;47.028;28.820;2024-03-08T12:55:51;40.27;;;20.80;;
42066;SDS011;27734;47.028;28.820;2024-03-08T12:58:24;35.03;;;17.62;;
42066;SDS011;27734;47.028;28.820;2024-03-08T13:00:56;48.13;;;24.20;;
42066;SDS011;27734;47.028;28.820;2024-03-08T13:03:27;31.30;;;15.73;;
42066;SDS011;27734;47.028;28.820;2024-03-08T13:05:59;30.07;;;15.67;;
42066;SDS011;27734;47.028;28.820;2024-03-08T13:08:30;29.63;;;15.10;;
42066;SDS011;27734;47.028;28.820;2024-03-08T13:11:04;32.13;;;15.87;;
42066;SDS011;27734;47.028;28.820;2024-03-08T13:13:35;30.77;;;16.43;;
42066;SDS011;27734;47.028;28.820;2024-03-08T13:16:08;34.97;;;16.37;;
42066;SDS011;27734;47.028;28.820;2024-03-08T13:18:43;39.37;;;16.33;;
42066;SDS011;27734;47.028;28.820;2024-03-08T13:21:16;32.30;;;15.90;;
42066;SDS011;27734;47.028;28.820;2024-03-08T13:23:48;32.53;;;16.37;;
42066;SDS011;27734;47.028;28.820;2024-03-08T13:26:21;32.70;;;15.47;;
42066;SDS011;27734;47.028;28.820;2024-03-08T13:28:54;32.50;;;16.70;;
42066;SDS011;27734;47.028;28.820;2024-03-08T13:31:26;31.70;;;15.77;;
42066;SDS011;27734;47.028;28.820;2024-03-08T13:33:57;30.23;;;15.30;;
42066;SDS011;27734;47.028;28.820;2024-03-08T13:36:29;31.40;;;16.17;;
42066;SDS011;27734;47.028;28.820;2024-03-08T13:39:07;31.17;;;15.10;;
42066;SDS011;27734;47.028;28.820;2024-03-08T13:41:43;31.10;;;16.30;;
42066;SDS011;27734;47.028;28.820;2024-03-08T13:44:14;29.93;;;15.17;;
42066;SDS011;27734;47.028;28.820;2024-03-08T13:46:47;29.40;;;14.87;;
42066;SDS011;27734;47.028;28.820;2024-03-08T13:49:19;31.13;;;15.17;;
42066;SDS011;27734;47.028;28.820;2024-03-08T13:51:50;30.77;;;14.90;;
42066;SDS011;27734;47.028;28.820;2024-03-08T13:54:23;32.30;;;16.50;;
42066;SDS011;27734;47.028;28.820;2024-03-08T13:56:55;32.40;;;15.27;;
42066;SDS011;27734;47.028;28.820;2024-03-08T13:59:26;31.67;;;14.30;;
42066;SDS011;27734;47.028;28.820;2024-03-08T14:01:57;34.37;;;16.27;;
42066;SDS011;27734;47.028;28.820;2024-03-08T14:04:29;30.10;;;14.40;;
42066;SDS011;27734;47.028;28.820;2024-03-08T14:07:01;32.90;;;14.07;;
42066;SDS011;27734;47.028;28.820;2024-03-08T14:09:32;43.30;;;15.80;;
42066;SDS011;27734;47.028;28.820;2024-03-08T14:12:06;29.07;;;14.40;;
42066;SDS011;27734;47.028;28.820;2024-03-08T14:14:38;25.63;;;13.03;;
42066;SDS011;27734;47.028;28.820;2024-03-08T14:17:10;31.57;;;14.13;;
42066;SDS011;27734;47.028;28.820;2024-03-08T14:19:45;30.87;;;14.40;;
42066;SDS011;27734;47.028;28.820;2024-03-08T14:22:16;28.90;;;13.93;;
42066;SDS011;27734;47.028;28.820;2024-03-08T14:24:48;28.10;;;13.90;;
42066;SDS011;27734;47.028;28.820;2024-03-08T14:27:20;29.17;;;14.27;;
42066;SDS011;27734;47.028;28.820;2024-03-08T14:29:51;32.27;;;14.20;;
42066;SDS011;27734;47.028;28.820;2024-03-08T14:32:23;35.90;;;14.80;;
42066;SDS011;27734;47.028;28.820;2024-03-08T14:34:54;29.87;;;14.43;;
42066;SDS011;27734;47.028;28.820;2024-03-08T14:37:27;30.57;;;14.73;;
42066;SDS011;27734;47.028;28.820;2024-03-08T14:39:58;29.43;;;14.23;;
42066;SDS011;27734;47.028;28.820;2024-03-08T14:42:29;29.60;;;14.27;;
42066;SDS011;27734;47.028;28.820;2024-03-08T14:45:00;28.47;;;14.80;;